Aviation Digital Data Service (ADDS)

Output produced by METARs form (0904 UTC 24 March 2019)
found at http://www.aviationweather.gov/metar/data/
 
Forecast for: FSIA (SEYCHELLES INTL , SC)
Text: TAF FSIA 240500Z 2406/2506 35010KT 9999 SCT023
Forecast period: 0600 UTC 24 March 2019 to 0600 UTC 25 March 2019
Forecast type: FROM: standard forecast or significant change
Winds: from the N (350 degrees) at 12 MPH (10 knots; 5.1 m/s)
Visibility: 6 or more miles 10+ km)
Ceiling: at least 12,000 feet AGL
Clouds: scattered clouds at 2300 feet AGL
Weather: no significant weather forecast for this period